Terminal Aerodrome Forecast
Issued by NWS

Home | Current Version | Previous Version | Text Only | Print | Product List | Glossary On
Versions: 1 2 3 4 5 6 7 8 9 10 11 12 13 14 15 16 17 18 19
000
FTUS44 KBMX 092300
TAFEET
TAF
KEET 092335Z 1000/1024 25004KT P6SM VCSH SCT035 BKN050
     FM100600 00000KT P6SM SCT050 BKN150
     FM101500 30005KT P6SM BKN050=

USA.gov is the U.S. government's official web portal to all federal, state and local government web resources and services.